createdAt,value
2023-01-11T00:01:02.945Z,89.56
2023-01-11T00:03:31.652Z,89.74
2023-01-11T00:05:59.900Z,88.73
2023-01-11T00:08:28.566Z,87.62
2023-01-11T00:10:56.963Z,89.01
2023-01-11T00:13:24.893Z,88.36
2023-01-11T00:15:52.943Z,87.75
2023-01-11T00:18:21.459Z,88.12
2023-01-11T00:20:49.373Z,88.22
2023-01-11T00:23:17.402Z,87.60
2023-01-11T00:25:45.772Z,88.25
2023-01-11T00:28:13.788Z,88.77
2023-01-11T00:30:42.331Z,88.85
2023-01-11T00:33:11.234Z,89.30
2023-01-11T00:35:39.186Z,88.75
2023-01-11T00:38:07.213Z,88.93
2023-01-11T00:40:35.553Z,88.95
2023-01-11T00:43:22.262Z,89.76
2023-01-11T00:46:09.090Z,89.06
2023-01-11T00:48:37.291Z,88.27
2023-01-11T00:51:05.677Z,88.17
2023-01-11T00:53:33.714Z,89.21
2023-01-11T00:56:01.673Z,90.83
2023-01-11T00:58:29.953Z,88.83
2023-01-11T01:00:58.835Z,90.12
2023-01-11T01:03:26.871Z,89.13
2023-01-11T01:05:56.059Z,89.77
2023-01-11T01:08:24.081Z,88.61
2023-01-11T01:10:52.800Z,88.90
2023-01-11T01:13:39.572Z,88.65
2023-01-11T01:16:07.995Z,88.88
2023-01-11T01:18:36.315Z,86.68
2023-01-11T01:21:04.328Z,88.07
2023-01-11T01:23:32.241Z,87.60
2023-01-11T01:26:04.231Z,89.04
2023-01-11T01:28:32.440Z,89.95
2023-01-11T01:31:00.978Z,88.16
2023-01-11T01:33:28.952Z,88.55
2023-01-11T01:35:57.082Z,89.39
2023-01-11T01:38:25.665Z,88.96
2023-01-11T01:40:53.787Z,90.36
2023-01-11T01:43:21.761Z,90.88
2023-01-11T01:45:52.969Z,90.71
2023-01-11T01:48:23.277Z,90.21
2023-01-11T01:50:57.201Z,89.42
2023-01-11T01:53:28.031Z,89.48
2023-01-11T01:55:59.317Z,89.53
2023-01-11T01:58:40.599Z,89.23
2023-01-11T02:01:27.494Z,89.16
2023-01-11T02:03:55.978Z,89.14
2023-01-11T02:06:24.531Z,90.42
2023-01-11T02:08:58.590Z,90.96
2023-01-11T02:11:32.902Z,90.77
2023-01-11T02:14:07.340Z,89.35
2023-01-11T02:16:35.875Z,89.31
2023-01-11T02:19:04.802Z,89.28
2023-01-11T02:21:50.564Z,90.07
2023-01-11T02:24:37.164Z,90.07
2023-01-11T02:27:26.705Z,91.23
2023-01-11T02:30:13.971Z,89.89
2023-01-11T02:32:51.805Z,91.18
2023-01-11T02:35:38.200Z,91.31
2023-01-11T02:38:14.770Z,90.19
2023-01-11T02:41:14.209Z,90.47
2023-01-11T02:44:06.271Z,89.65
2023-01-11T02:46:43.019Z,89.59
2023-01-11T02:49:36.997Z,90.75
2023-01-11T02:52:20.820Z,90.27
2023-01-11T02:54:54.312Z,88.98
2023-01-11T02:57:23.373Z,90.53
2023-01-11T02:59:51.419Z,90.28
2023-01-11T03:02:19.531Z,89.40
2023-01-11T03:04:47.892Z,89.43
2023-01-11T03:07:41.869Z,88.70
2023-01-11T03:10:16.294Z,87.63
2023-01-11T03:13:04.017Z,88.07
2023-01-11T03:15:47.240Z,87.96
2023-01-11T03:18:40.095Z,88.96
2023-01-11T03:21:24.394Z,86.66
2023-01-11T03:24:31.150Z,88.79
2023-01-11T03:27:08.235Z,87.30
2023-01-11T03:29:42.219Z,86.88
2023-01-11T03:32:13.254Z,87.45
2023-01-11T03:34:56.491Z,88.98
2023-01-11T03:37:29.899Z,88.24
2023-01-11T03:40:19.682Z,87.58
2023-01-11T03:43:09.433Z,88.90
2023-01-11T03:45:49.213Z,89.35
2023-01-11T03:48:21.575Z,89.46
2023-01-11T03:50:50.696Z,88.96
2023-01-11T03:53:20.223Z,89.58
2023-01-11T03:55:52.122Z,89.07
2023-01-11T03:58:20.562Z,89.80
2023-01-11T04:00:49.290Z,88.85
2023-01-11T04:03:17.871Z,87.44
2023-01-11T04:05:47.959Z,87.01
2023-01-11T04:08:15.982Z,88.21
2023-01-11T04:10:44.384Z,87.55
2023-01-11T04:13:12.559Z,87.99
2023-01-11T04:15:40.599Z,88.60
2023-01-11T04:18:09.017Z,87.48
2023-01-11T04:20:39.242Z,87.30
2023-01-11T04:23:08.525Z,87.80
2023-01-11T04:25:36.941Z,87.42
2023-01-11T04:28:05.031Z,88.74
2023-01-11T04:30:33.140Z,87.80
2023-01-11T04:33:01.401Z,88.31
2023-01-11T04:35:29.510Z,86.88
2023-01-11T04:37:58.125Z,88.13
2023-01-11T04:40:26.586Z,88.94
2023-01-11T04:42:54.545Z,86.83
2023-01-11T04:45:22.847Z,85.89
2023-01-11T04:47:56.151Z,86.52
2023-01-11T04:50:27.802Z,87.05
2023-01-11T04:52:57.775Z,88.58
2023-01-11T04:55:25.728Z,87.55
2023-01-11T04:57:53.709Z,86.99
2023-01-11T05:00:22.252Z,87.74
2023-01-11T05:02:50.222Z,90.39
2023-01-11T05:05:18.240Z,88.64
2023-01-11T05:07:48.808Z,88.55
2023-01-11T05:10:17.296Z,88.81
2023-01-11T05:12:47.270Z,88.93
2023-01-11T05:15:15.725Z,87.85
2023-01-11T05:17:43.849Z,89.34
2023-01-11T05:20:12.191Z,88.39
2023-01-11T05:22:40.642Z,89.60
2023-01-11T05:25:09.011Z,88.37
2023-01-11T05:27:37.028Z,88.57
2023-01-11T05:30:06.012Z,87.59
2023-01-11T05:32:34.199Z,86.92
2023-01-11T05:35:02.268Z,88.76
2023-01-11T05:37:30.874Z,89.55
2023-01-11T05:39:58.870Z,87.77
2023-01-11T05:42:26.939Z,87.45
2023-01-11T05:45:13.769Z,86.86
2023-01-11T05:47:41.741Z,87.53
2023-01-11T05:50:10.844Z,87.29
2023-01-11T05:52:38.871Z,88.41
2023-01-11T05:55:07.772Z,88.00
2023-01-11T05:57:36.220Z,86.30
2023-01-11T06:00:04.613Z,86.71
2023-01-11T06:02:37.844Z,85.60
2023-01-11T06:05:06.900Z,85.60
2023-01-11T06:07:34.994Z,86.25
2023-01-11T06:10:03.050Z,86.68
2023-01-11T06:12:31.470Z,87.03
2023-01-11T06:14:59.498Z,87.23
2023-01-11T06:17:27.621Z,88.03
2023-01-11T06:19:56.091Z,87.27
2023-01-11T06:22:24.310Z,85.25
2023-01-11T06:24:52.473Z,86.68
2023-01-11T06:27:21.088Z,85.34
2023-01-11T06:29:49.234Z,86.43
2023-01-11T06:32:17.201Z,85.30
2023-01-11T06:34:45.517Z,85.34
2023-01-11T06:37:13.581Z,86.05
2023-01-11T06:39:41.846Z,87.10
2023-01-11T06:42:10.309Z,86.32
2023-01-11T06:44:38.331Z,87.00
2023-01-11T06:47:06.439Z,87.17
2023-01-11T06:49:34.843Z,86.39
2023-01-11T06:52:02.897Z,86.26
2023-01-11T06:54:31.092Z,86.18
2023-01-11T06:56:59.562Z,86.01
2023-01-11T06:59:27.542Z,85.25
2023-01-11T07:01:55.640Z,85.09
2023-01-11T07:04:24.121Z,85.56
2023-01-11T07:06:54.718Z,85.53
2023-01-11T07:09:22.886Z,86.52
2023-01-11T07:11:51.370Z,82.99
2023-01-11T07:14:21.260Z,80.18
2023-01-11T07:16:49.372Z,76.44
2023-01-11T07:19:18.665Z,74.45
2023-01-11T07:21:46.972Z,73.22
2023-01-11T07:24:15.216Z,75.40
2023-01-11T07:26:44.129Z,75.66
2023-01-11T07:29:12.345Z,76.17
2023-01-11T07:31:40.594Z,76.93
2023-01-11T07:34:09.806Z,76.64
2023-01-11T07:36:39.928Z,76.45
2023-01-11T07:39:08.598Z,78.71
2023-01-11T07:41:55.361Z,76.69
2023-01-11T07:44:24.108Z,79.07
2023-01-11T07:46:52.509Z,79.30
2023-01-11T07:49:20.719Z,78.22
2023-01-11T07:51:51.117Z,79.82
2023-01-11T07:54:19.551Z,78.63
2023-01-11T07:56:47.728Z,75.24
2023-01-11T07:59:16.167Z,74.55
2023-01-11T08:01:44.489Z,75.41
2023-01-11T08:04:14.432Z,73.22
2023-01-11T08:06:42.563Z,70.92
2023-01-11T08:09:11.116Z,70.97
2023-01-11T08:11:58.184Z,73.27
2023-01-11T08:14:43.127Z,70.39
2023-01-11T08:17:14.118Z,70.57
2023-01-11T08:19:42.820Z,70.67
2023-01-11T08:22:12.445Z,69.10
2023-01-11T08:24:40.592Z,65.26
2023-01-11T08:27:08.817Z,64.98
2023-01-11T08:29:38.227Z,63.60
2023-01-11T08:32:06.454Z,62.44
2023-01-11T08:34:35.262Z,64.81
2023-01-11T08:37:04.010Z,66.17
2023-01-11T08:39:32.353Z,66.26
2023-01-11T08:42:01.206Z,67.50
2023-01-11T08:44:34.056Z,69.30
2023-01-11T08:47:03.571Z,66.77
2023-01-11T08:49:32.210Z,67.87
2023-01-11T08:52:00.461Z,63.01
2023-01-11T08:54:28.551Z,61.95
2023-01-11T08:56:57.254Z,60.08
2023-01-11T08:59:25.531Z,58.06
2023-01-11T09:01:53.751Z,55.95
2023-01-11T09:04:25.852Z,54.25
2023-01-11T09:06:54.458Z,52.06
2023-01-11T09:09:23.270Z,51.94
2023-01-11T09:11:54.795Z,54.07
2023-01-11T09:14:27.632Z,51.57
2023-01-11T09:16:57.174Z,54.90
2023-01-11T09:19:26.220Z,57.14
2023-01-11T09:21:57.272Z,54.21
2023-01-11T09:24:25.748Z,54.10
2023-01-11T09:26:53.939Z,55.15
2023-01-11T09:29:22.190Z,53.46
2023-01-11T09:31:52.433Z,53.88
2023-01-11T09:34:21.481Z,50.65
2023-01-11T09:36:49.577Z,51.57
2023-01-11T09:39:20.745Z,54.41
2023-01-11T09:42:07.755Z,56.84
2023-01-11T09:44:38.055Z,56.81
2023-01-11T09:47:13.948Z,56.46
2023-01-11T09:49:47.999Z,54.19
2023-01-11T09:52:26.489Z,53.12
2023-01-11T09:54:56.885Z,54.96
2023-01-11T09:57:35.401Z,53.72
2023-01-11T10:00:51.226Z,51.00
2023-01-11T10:03:27.694Z,50.14
2023-01-11T10:06:21.234Z,48.21
2023-01-11T10:18:31.996Z,42.31
2023-01-11T10:18:48.797Z,41.51
2023-01-11T10:21:23.114Z,40.13
2023-01-11T10:23:58.111Z,39.66
2023-01-11T10:26:29.569Z,38.13
2023-01-11T10:29:40.403Z,40.02
2023-01-11T10:32:34.594Z,39.95
2023-01-11T10:35:24.674Z,40.25
2023-01-11T10:38:12.232Z,38.91
2023-01-11T10:41:04.315Z,40.49
2023-01-11T10:43:38.261Z,40.57
2023-01-11T10:46:17.328Z,42.11
2023-01-11T10:48:46.927Z,40.22
2023-01-11T10:51:18.512Z,42.15
2023-01-11T10:54:14.715Z,41.46
2023-01-11T10:57:04.673Z,42.53
2023-01-11T10:59:51.302Z,38.09
2023-01-11T11:02:53.454Z,39.86
2023-01-11T11:05:35.332Z,38.04
2023-01-11T11:08:13.715Z,39.05
2023-01-11T11:11:14.406Z,37.86
2023-01-11T11:14:06.266Z,38.28
2023-01-11T11:16:49.780Z,38.32
2023-01-11T11:19:21.614Z,38.65
2023-01-11T11:21:52.571Z,38.96
2023-01-11T11:24:33.313Z,39.44
2023-01-11T11:27:46.330Z,39.54
2023-01-11T11:30:15.860Z,39.03
2023-01-11T11:32:54.118Z,40.02
2023-01-11T11:35:41.452Z,38.56
2023-01-11T11:38:31.772Z,37.88
2023-01-11T11:41:17.440Z,39.19
2023-01-11T11:43:47.971Z,41.12
2023-01-11T11:46:19.429Z,38.08
2023-01-11T11:49:24.461Z,40.67
2023-01-11T11:51:53.175Z,37.81
2023-01-11T11:54:31.342Z,37.95
2023-01-11T11:57:22.322Z,39.10
2023-01-11T12:00:23.277Z,38.99
2023-01-11T12:03:06.760Z,37.53
2023-01-11T12:05:36.262Z,36.78
2023-01-11T12:08:05.053Z,37.49
2023-01-11T12:10:33.232Z,37.77
2023-01-11T12:13:03.673Z,38.85
2023-01-11T12:15:33.592Z,37.13
2023-01-11T12:18:42.636Z,38.18
2023-01-11T12:21:21.433Z,36.12
2023-01-11T12:24:19.668Z,38.48
2023-01-11T12:27:06.259Z,38.48
2023-01-11T12:30:01.447Z,40.37
2023-01-11T12:33:08.137Z,41.86
2023-01-11T12:35:54.374Z,41.60
2023-01-11T12:38:31.533Z,40.13
2023-01-11T12:41:47.817Z,40.62
2023-01-11T12:44:30.409Z,42.72
2023-01-11T12:47:17.912Z,44.81
2023-01-11T12:50:04.413Z,44.26
2023-01-11T12:52:57.491Z,47.77
2023-01-11T12:55:46.943Z,46.10
2023-01-11T12:58:33.733Z,46.42
2023-01-11T13:01:23.718Z,48.70
2023-01-11T13:04:13.484Z,48.41
2023-01-11T13:06:51.448Z,48.66
2023-01-11T13:09:38.476Z,50.90
2023-01-11T13:12:16.317Z,49.49
2023-01-11T13:15:09.463Z,50.74
2023-01-11T13:17:45.521Z,48.65
2023-01-11T13:20:25.911Z,51.15
2023-01-11T13:23:05.447Z,50.08
2023-01-11T13:25:35.514Z,50.10
2023-01-11T13:28:24.463Z,51.30
2023-01-11T13:30:52.704Z,51.36
2023-01-11T13:33:23.379Z,51.67
2023-01-11T13:35:56.284Z,50.71
2023-01-11T13:38:47.385Z,54.31
2023-01-11T13:41:27.973Z,54.38
2023-01-11T13:44:21.090Z,57.19
2023-01-11T13:47:03.233Z,55.53
2023-01-11T13:50:10.758Z,57.26
2023-01-11T13:52:41.567Z,57.08
2023-01-11T13:55:36.400Z,58.18
2023-01-11T13:58:12.574Z,60.24
2023-01-11T14:00:51.396Z,60.00
2023-01-11T14:03:32.783Z,60.23
2023-01-11T14:06:13.149Z,60.56
2023-01-11T14:09:17.625Z,62.30
2023-01-11T14:11:58.783Z,61.57
2023-01-11T14:14:59.380Z,62.82
2023-01-11T14:17:36.847Z,62.46
2023-01-11T14:20:45.894Z,63.08
2023-01-11T14:23:16.148Z,63.30
2023-01-11T14:25:47.730Z,63.08
2023-01-11T14:28:15.680Z,63.92
2023-01-11T14:31:05.050Z,63.92
2023-01-11T14:33:56.491Z,63.59
2023-01-11T14:37:00.569Z,64.91
2023-01-11T14:39:54.863Z,65.87
2023-01-11T14:42:35.706Z,65.66
2023-01-11T14:45:23.378Z,65.51
2023-01-11T14:48:12.562Z,65.39
2023-01-11T14:51:13.669Z,64.65
2023-01-11T14:53:50.729Z,65.68
2023-01-11T14:56:44.767Z,68.96
2023-01-11T14:59:39.275Z,67.98
2023-01-11T15:02:19.456Z,66.43
2023-01-11T15:04:56.522Z,66.84
2023-01-11T15:07:32.470Z,67.69
2023-01-11T15:10:04.885Z,69.46
2023-01-11T15:12:39.600Z,68.82
2023-01-11T15:15:13.933Z,69.05
2023-01-11T15:18:01.391Z,68.07
2023-01-11T15:20:29.295Z,66.89
2023-01-11T15:23:02.409Z,67.11
2023-01-11T15:25:33.723Z,68.78
2023-01-11T15:28:05.780Z,67.78
2023-01-11T15:30:36.734Z,69.44
2023-01-11T15:33:18.546Z,68.44
2023-01-11T15:35:55.573Z,67.66
2023-01-11T15:38:30.571Z,67.90
2023-01-11T15:41:17.896Z,68.50
2023-01-11T15:43:56.510Z,68.77
2023-01-11T15:46:51.993Z,68.44
2023-01-11T15:49:35.707Z,66.12
2023-01-11T15:52:16.134Z,65.78
2023-01-11T15:54:58.364Z,66.10
2023-01-11T15:57:32.109Z,64.47
2023-01-11T16:00:22.098Z,65.80
2023-01-11T16:03:12.933Z,66.40
2023-01-11T16:06:17.406Z,67.10
2023-01-11T16:08:50.933Z,69.12
2023-01-11T16:11:31.624Z,67.31
2023-01-11T16:14:23.637Z,72.55
2023-01-11T16:16:54.799Z,73.57
2023-01-11T16:19:26.347Z,74.77
2023-01-11T16:22:00.556Z,69.62
2023-01-11T16:24:34.050Z,68.74
2023-01-11T16:27:06.139Z,68.08
2023-01-11T16:29:37.543Z,68.57
2023-01-11T16:32:07.889Z,69.30
2023-01-11T16:34:46.332Z,67.72
2023-01-11T16:37:21.035Z,69.97
2023-01-11T16:39:52.420Z,72.90
2023-01-11T16:42:21.045Z,74.91
2023-01-11T16:45:13.880Z,73.30
2023-01-11T16:47:42.152Z,70.61
2023-01-11T16:50:20.871Z,73.22
2023-01-11T16:52:53.040Z,74.71
2023-01-11T16:55:37.903Z,73.14
2023-01-11T16:58:17.014Z,71.80
2023-01-11T17:00:57.371Z,74.77
2023-01-11T17:03:27.421Z,73.72
2023-01-11T17:06:02.184Z,72.41
2023-01-11T17:08:38.698Z,74.14
2023-01-11T17:11:25.617Z,81.00
2023-01-11T17:14:00.657Z,81.96
2023-01-11T17:16:31.187Z,76.34
2023-01-11T17:19:01.421Z,73.14
2023-01-11T17:21:30.609Z,73.53
2023-01-11T17:24:01.480Z,75.04
2023-01-11T17:26:33.918Z,73.23
2023-01-11T17:29:02.380Z,80.50
2023-01-11T17:31:33.857Z,77.13
2023-01-11T17:34:08.883Z,75.65
2023-01-11T17:36:37.692Z,74.16
2023-01-11T17:39:05.976Z,74.46
2023-01-11T17:41:52.931Z,85.64
2023-01-11T17:44:42.359Z,81.10
2023-01-11T17:47:12.634Z,76.33
2023-01-11T17:49:40.983Z,74.62
2023-01-11T17:52:11.499Z,75.55
2023-01-11T17:54:39.754Z,75.41
2023-01-11T17:57:10.028Z,75.89
2023-01-11T17:59:38.197Z,78.44
2023-01-11T18:02:15.986Z,80.78
2023-01-11T18:04:58.057Z,78.50
2023-01-11T18:07:26.236Z,77.38
2023-01-11T18:10:02.171Z,78.25
2023-01-11T18:12:33.560Z,83.25
2023-01-11T18:15:05.220Z,84.67
2023-01-11T18:17:33.410Z,80.59
2023-01-11T18:20:14.971Z,82.39
2023-01-11T18:22:57.645Z,79.49
2023-01-11T18:25:30.943Z,78.64
2023-01-11T18:28:26.036Z,83.24
2023-01-11T18:30:58.502Z,86.28
2023-01-11T18:33:30.016Z,82.08
2023-01-11T18:36:00.870Z,79.74
2023-01-11T18:38:36.487Z,79.65
2023-01-11T18:41:27.343Z,79.31
2023-01-11T18:43:55.975Z,78.34
2023-01-11T18:46:24.489Z,76.92
2023-01-11T18:48:52.764Z,76.53
2023-01-11T18:51:33.987Z,78.28
2023-01-11T18:54:02.633Z,87.22
2023-01-11T18:56:30.579Z,87.79
2023-01-11T18:58:58.675Z,84.54
2023-01-11T19:01:27.257Z,82.04
2023-01-11T19:03:55.386Z,82.57
2023-01-11T19:06:23.437Z,78.79
2023-01-11T19:08:51.792Z,78.63
2023-01-11T19:11:20.827Z,76.36
2023-01-11T19:13:49.002Z,79.04
2023-01-11T19:16:17.538Z,87.26
2023-01-11T19:18:46.742Z,83.50
2023-01-11T19:21:15.263Z,78.74
2023-01-11T19:23:43.849Z,77.74
2023-01-11T19:26:11.993Z,78.69
2023-01-11T19:28:40.251Z,77.78
2023-01-11T19:31:09.661Z,79.52
2023-01-11T19:33:38.553Z,81.86
2023-01-11T19:36:08.231Z,83.73
2023-01-11T19:38:37.244Z,80.63
2023-01-11T19:41:07.452Z,81.20
2023-01-11T19:43:36.439Z,85.32
2023-01-11T19:46:05.243Z,82.72
2023-01-11T19:48:34.665Z,82.97
2023-01-11T19:51:08.983Z,83.10
2023-01-11T19:53:37.864Z,83.30
2023-01-11T19:56:08.420Z,81.64
2023-01-11T19:58:38.065Z,81.48
2023-01-11T20:01:13.169Z,79.60
2023-01-11T20:03:42.337Z,79.16
2023-01-11T20:06:11.111Z,79.86
2023-01-11T20:08:41.324Z,81.21
2023-01-11T20:11:17.111Z,81.45
2023-01-11T20:13:50.702Z,83.04
2023-01-11T20:16:21.756Z,82.74
2023-01-11T20:18:57.169Z,83.66
2023-01-11T20:21:28.571Z,80.36
2023-01-11T20:23:59.708Z,79.30
2023-01-11T20:26:30.814Z,79.22
2023-01-11T20:28:58.969Z,79.65
2023-01-11T20:31:31.789Z,79.47
2023-01-11T20:34:01.562Z,81.75
2023-01-11T20:36:29.969Z,85.34
2023-01-11T20:38:58.060Z,81.97
2023-01-11T20:41:46.379Z,80.30
2023-01-11T20:44:16.741Z,78.97
2023-01-11T20:46:47.647Z,77.38
2023-01-11T20:49:18.008Z,78.45
2023-01-11T20:51:46.863Z,83.56
2023-01-11T20:54:15.599Z,85.23
2023-01-11T20:56:47.220Z,82.86
2023-01-11T20:59:19.276Z,78.60
2023-01-11T21:01:50.142Z,77.86
2023-01-11T21:04:20.578Z,82.33
2023-01-11T21:06:51.513Z,80.38
2023-01-11T21:09:20.675Z,83.64
2023-01-11T21:11:54.241Z,80.70
2023-01-11T21:14:26.161Z,80.16
2023-01-11T21:16:56.877Z,76.77
2023-01-11T21:19:25.858Z,76.84
2023-01-11T21:21:55.889Z,78.03
2023-01-11T21:24:25.558Z,78.64
2023-01-11T21:26:53.460Z,83.68
2023-01-11T21:29:22.702Z,81.17
2023-01-11T21:31:51.162Z,77.82
2023-01-11T21:34:21.410Z,77.96
2023-01-11T21:36:52.285Z,78.24
2023-01-11T21:39:21.185Z,83.15
2023-01-11T21:41:55.447Z,79.03
2023-01-11T21:44:28.962Z,78.07
2023-01-11T21:47:03.206Z,80.78
2023-01-11T21:49:33.023Z,84.42
2023-01-11T21:52:03.578Z,82.25
2023-01-11T21:54:32.635Z,78.70
2023-01-11T21:57:00.610Z,77.97
2023-01-11T21:59:31.178Z,80.71
2023-01-11T22:01:59.718Z,80.91
2023-01-11T22:04:28.059Z,79.51
2023-01-11T22:06:57.381Z,78.35
2023-01-11T22:09:28.477Z,78.72
2023-01-11T22:11:58.206Z,83.36
2023-01-11T22:14:26.251Z,84.25
2023-01-11T22:16:54.290Z,82.35
2023-01-11T22:19:23.553Z,81.05
2023-01-11T22:21:51.863Z,80.61
2023-01-11T22:24:21.040Z,79.45
2023-01-11T22:26:50.083Z,81.48
2023-01-11T22:29:20.477Z,82.08
2023-01-11T22:31:55.859Z,82.71
2023-01-11T22:34:25.574Z,81.78
2023-01-11T22:36:54.546Z,81.50
2023-01-11T22:39:24.291Z,86.64
2023-01-11T22:41:52.748Z,82.07
2023-01-11T22:44:21.022Z,80.26
2023-01-11T22:46:49.048Z,79.30
2023-01-11T22:49:18.257Z,78.55
2023-01-11T22:51:46.893Z,80.31
2023-01-11T22:54:15.438Z,84.06
2023-01-11T22:56:43.838Z,81.00
2023-01-11T22:59:11.859Z,80.81
2023-01-11T23:01:42.144Z,79.89
2023-01-11T23:04:12.900Z,80.28
2023-01-11T23:06:42.355Z,81.21
2023-01-11T23:09:16.675Z,83.79
2023-01-11T23:12:04.340Z,85.24
2023-01-11T23:14:33.896Z,86.31
2023-01-11T23:17:09.783Z,86.23
2023-01-11T23:19:41.523Z,86.34
2023-01-11T23:22:10.565Z,83.58
2023-01-11T23:24:39.269Z,81.00
2023-01-11T23:27:07.437Z,80.96
2023-01-11T23:29:35.868Z,79.92
2023-01-11T23:32:04.655Z,79.80
2023-01-11T23:34:33.994Z,80.69
2023-01-11T23:37:02.458Z,85.27
2023-01-11T23:39:31.127Z,84.79
2023-01-11T23:42:17.879Z,80.27
2023-01-11T23:44:47.457Z,78.37
2023-01-11T23:47:21.334Z,78.73
2023-01-11T23:49:51.698Z,78.53
2023-01-11T23:52:22.428Z,81.44
2023-01-11T23:54:52.062Z,83.39
2023-01-11T23:57:21.493Z,80.00
2023-01-11T23:59:50.131Z,80.13
